sensor_id;sensor_type;location;lat;lon;timestamp;P1;durP1;ratioP1;P2;durP2;ratioP2
62941;SDS011;49042;47.318;19.874;2023-02-28T00:02:04;8.80;;;5.25;;
62941;SDS011;49042;47.318;19.874;2023-02-28T00:05:06;8.80;;;4.55;;
62941;SDS011;49042;47.318;19.874;2023-02-28T00:08:09;11.23;;;5.00;;
62941;SDS011;49042;47.318;19.874;2023-02-28T00:11:12;12.50;;;6.05;;
62941;SDS011;49042;47.318;19.874;2023-02-28T00:14:15;9.23;;;5.45;;
62941;SDS011;49042;47.318;19.874;2023-02-28T00:17:17;10.25;;;5.70;;
62941;SDS011;49042;47.318;19.874;2023-02-28T00:20:22;11.45;;;6.40;;
62941;SDS011;49042;47.318;19.874;2023-02-28T00:23:25;11.45;;;6.40;;
62941;SDS011;49042;47.318;19.874;2023-02-28T00:26:27;14.63;;;7.28;;
62941;SDS011;49042;47.318;19.874;2023-02-28T00:29:29;11.88;;;6.47;;
62941;SDS011;49042;47.318;19.874;2023-02-28T00:32:31;12.27;;;6.55;;
62941;SDS011;49042;47.318;19.874;2023-02-28T00:35:32;13.15;;;7.22;;
62941;SDS011;49042;47.318;19.874;2023-02-28T00:38:34;17.83;;;8.32;;
62941;SDS011;49042;47.318;19.874;2023-02-28T00:41:36;16.42;;;7.72;;
62941;SDS011;49042;47.318;19.874;2023-02-28T00:44:37;16.33;;;9.07;;
62941;SDS011;49042;47.318;19.874;2023-02-28T00:47:39;15.20;;;8.70;;
62941;SDS011;49042;47.318;19.874;2023-02-28T00:50:41;16.10;;;9.40;;
62941;SDS011;49042;47.318;19.874;2023-02-28T00:53:43;12.35;;;7.75;;
62941;SDS011;49042;47.318;19.874;2023-02-28T00:56:44;14.77;;;7.97;;
62941;SDS011;49042;47.318;19.874;2023-02-28T00:59:47;16.90;;;8.13;;
62941;SDS011;49042;47.318;19.874;2023-02-28T01:02:49;14.13;;;8.25;;
62941;SDS011;49042;47.318;19.874;2023-02-28T01:05:50;19.00;;;9.30;;
62941;SDS011;49042;47.318;19.874;2023-02-28T01:08:54;16.98;;;8.30;;
62941;SDS011;49042;47.318;19.874;2023-02-28T01:11:56;16.70;;;9.20;;
62941;SDS011;49042;47.318;19.874;2023-02-28T01:14:57;19.23;;;8.88;;
62941;SDS011;49042;47.318;19.874;2023-02-28T01:17:59;19.10;;;9.40;;
62941;SDS011;49042;47.318;19.874;2023-02-28T01:21:03;17.20;;;9.20;;
62941;SDS011;49042;47.318;19.874;2023-02-28T01:24:06;19.62;;;9.50;;
62941;SDS011;49042;47.318;19.874;2023-02-28T01:27:08;16.73;;;9.05;;
62941;SDS011;49042;47.318;19.874;2023-02-28T01:30:10;16.27;;;9.48;;
62941;SDS011;49042;47.318;19.874;2023-02-28T01:33:12;13.80;;;8.98;;
62941;SDS011;49042;47.318;19.874;2023-02-28T01:36:15;19.35;;;9.55;;
62941;SDS011;49042;47.318;19.874;2023-02-28T01:39:19;17.12;;;9.30;;
62941;SDS011;49042;47.318;19.874;2023-02-28T01:42:21;16.70;;;9.00;;
62941;SDS011;49042;47.318;19.874;2023-02-28T01:45:27;21.75;;;9.95;;
62941;SDS011;49042;47.318;19.874;2023-02-28T01:48:32;18.23;;;9.65;;
62941;SDS011;49042;47.318;19.874;2023-02-28T01:51:47;22.02;;;9.23;;
62941;SDS011;49042;47.318;19.874;2023-02-28T01:54:55;16.40;;;9.55;;
62941;SDS011;49042;47.318;19.874;2023-02-28T01:58:00;19.23;;;9.48;;
62941;SDS011;49042;47.318;19.874;2023-02-28T02:01:04;18.55;;;11.70;;
62941;SDS011;49042;47.318;19.874;2023-02-28T02:04:06;21.25;;;11.90;;
62941;SDS011;49042;47.318;19.874;2023-02-28T02:07:07;21.65;;;10.73;;
62941;SDS011;49042;47.318;19.874;2023-02-28T02:10:18;19.30;;;10.65;;
62941;SDS011;49042;47.318;19.874;2023-02-28T02:29:39;22.17;;;10.75;;
62941;SDS011;49042;47.318;19.874;2023-02-28T02:39:14;15.95;;;10.23;;
62941;SDS011;49042;47.318;19.874;2023-02-28T02:42:23;22.08;;;10.55;;
62941;SDS011;49042;47.318;19.874;2023-02-28T02:51:41;13.32;;;9.05;;
62941;SDS011;49042;47.318;19.874;2023-02-28T02:54:45;17.62;;;10.48;;
62941;SDS011;49042;47.318;19.874;2023-02-28T02:57:51;19.77;;;10.60;;
62941;SDS011;49042;47.318;19.874;2023-02-28T03:00:58;16.37;;;10.43;;
62941;SDS011;49042;47.318;19.874;2023-02-28T03:04:04;23.62;;;10.68;;
62941;SDS011;49042;47.318;19.874;2023-02-28T03:07:12;18.70;;;10.45;;
62941;SDS011;49042;47.318;19.874;2023-02-28T03:16:57;18.55;;;11.00;;
62941;SDS011;49042;47.318;19.874;2023-02-28T03:27:07;20.23;;;10.68;;
62941;SDS011;49042;47.318;19.874;2023-02-28T03:33:42;20.88;;;10.73;;
62941;SDS011;49042;47.318;19.874;2023-02-28T03:36:55;23.02;;;10.48;;
62941;SDS011;49042;47.318;19.874;2023-02-28T03:40:10;25.42;;;11.73;;
62941;SDS011;49042;47.318;19.874;2023-02-28T03:43:18;34.30;;;12.30;;
62941;SDS011;49042;47.318;19.874;2023-02-28T03:46:27;17.73;;;8.82;;
62941;SDS011;49042;47.318;19.874;2023-02-28T03:49:43;21.10;;;8.32;;
62941;SDS011;49042;47.318;19.874;2023-02-28T03:52:53;14.45;;;7.75;;
62941;SDS011;49042;47.318;19.874;2023-02-28T03:56:08;15.07;;;8.65;;
62941;SDS011;49042;47.318;19.874;2023-02-28T04:02:22;16.98;;;8.50;;
62941;SDS011;49042;47.318;19.874;2023-02-28T04:05:24;15.40;;;8.23;;
62941;SDS011;49042;47.318;19.874;2023-02-28T04:08:28;13.48;;;7.62;;
62941;SDS011;49042;47.318;19.874;2023-02-28T04:11:32;11.68;;;6.75;;
62941;SDS011;49042;47.318;19.874;2023-02-28T04:14:41;9.70;;;5.93;;
62941;SDS011;49042;47.318;19.874;2023-02-28T04:17:43;11.75;;;6.72;;
62941;SDS011;49042;47.318;19.874;2023-02-28T04:20:45;10.50;;;6.37;;
62941;SDS011;49042;47.318;19.874;2023-02-28T04:23:46;11.07;;;5.75;;
62941;SDS011;49042;47.318;19.874;2023-02-28T04:26:52;10.35;;;5.75;;
62941;SDS011;49042;47.318;19.874;2023-02-28T04:29:55;16.60;;;5.77;;
62941;SDS011;49042;47.318;19.874;2023-02-28T04:32:56;11.80;;;4.85;;
62941;SDS011;49042;47.318;19.874;2023-02-28T04:35:59;11.23;;;5.62;;
62941;SDS011;49042;47.318;19.874;2023-02-28T04:39:06;11.63;;;5.45;;
62941;SDS011;49042;47.318;19.874;2023-02-28T04:42:08;9.35;;;4.93;;
62941;SDS011;49042;47.318;19.874;2023-02-28T04:45:10;8.55;;;5.20;;
62941;SDS011;49042;47.318;19.874;2023-02-28T04:48:12;16.50;;;7.12;;
62941;SDS011;49042;47.318;19.874;2023-02-28T04:51:14;20.15;;;7.03;;
62941;SDS011;49042;47.318;19.874;2023-02-28T04:54:17;16.90;;;7.15;;
62941;SDS011;49042;47.318;19.874;2023-02-28T04:57:19;15.38;;;6.00;;
62941;SDS011;49042;47.318;19.874;2023-02-28T05:00:21;10.75;;;4.78;;
62941;SDS011;49042;47.318;19.874;2023-02-28T05:03:22;11.90;;;5.55;;
62941;SDS011;49042;47.318;19.874;2023-02-28T05:06:26;10.63;;;5.00;;
62941;SDS011;49042;47.318;19.874;2023-02-28T05:09:29;8.65;;;5.45;;
62941;SDS011;49042;47.318;19.874;2023-02-28T05:12:31;9.02;;;5.60;;
62941;SDS011;49042;47.318;19.874;2023-02-28T05:15:33;14.32;;;6.10;;
62941;SDS011;49042;47.318;19.874;2023-02-28T05:18:36;13.23;;;6.87;;
62941;SDS011;49042;47.318;19.874;2023-02-28T05:21:41;12.68;;;6.05;;
62941;SDS011;49042;47.318;19.874;2023-02-28T05:24:51;16.55;;;5.95;;
62941;SDS011;49042;47.318;19.874;2023-02-28T05:27:53;11.65;;;6.00;;
62941;SDS011;49042;47.318;19.874;2023-02-28T05:30:55;9.65;;;4.97;;
62941;SDS011;49042;47.318;19.874;2023-02-28T05:33:56;11.80;;;5.93;;
62941;SDS011;49042;47.318;19.874;2023-02-28T05:36:58;12.13;;;6.15;;
62941;SDS011;49042;47.318;19.874;2023-02-28T05:40:00;15.43;;;6.55;;
62941;SDS011;49042;47.318;19.874;2023-02-28T05:43:02;13.40;;;6.35;;
62941;SDS011;49042;47.318;19.874;2023-02-28T05:46:07;12.85;;;6.40;;
62941;SDS011;49042;47.318;19.874;2023-02-28T05:49:11;10.23;;;5.50;;
62941;SDS011;49042;47.318;19.874;2023-02-28T05:52:13;9.65;;;5.18;;
62941;SDS011;49042;47.318;19.874;2023-02-28T05:55:15;9.57;;;5.30;;
62941;SDS011;49042;47.318;19.874;2023-02-28T05:58:17;10.38;;;5.07;;
62941;SDS011;49042;47.318;19.874;2023-02-28T06:01:21;8.80;;;5.18;;
62941;SDS011;49042;47.318;19.874;2023-02-28T06:04:32;11.32;;;4.80;;
62941;SDS011;49042;47.318;19.874;2023-02-28T06:07:33;9.20;;;4.68;;
62941;SDS011;49042;47.318;19.874;2023-02-28T06:10:35;8.68;;;4.85;;
62941;SDS011;49042;47.318;19.874;2023-02-28T06:13:37;7.47;;;4.80;;
62941;SDS011;49042;47.318;19.874;2023-02-28T06:16:39;6.97;;;4.60;;
62941;SDS011;49042;47.318;19.874;2023-02-28T06:19:41;9.18;;;4.72;;
62941;SDS011;49042;47.318;19.874;2023-02-28T06:22:43;11.12;;;5.90;;
62941;SDS011;49042;47.318;19.874;2023-02-28T06:25:45;10.27;;;5.00;;
62941;SDS011;49042;47.318;19.874;2023-02-28T06:28:47;8.48;;;4.90;;
62941;SDS011;49042;47.318;19.874;2023-02-28T06:31:49;8.73;;;4.97;;
62941;SDS011;49042;47.318;19.874;2023-02-28T06:34:51;8.70;;;4.90;;
62941;SDS011;49042;47.318;19.874;2023-02-28T06:37:52;12.07;;;4.90;;
62941;SDS011;49042;47.318;19.874;2023-02-28T06:40:55;9.32;;;5.37;;
62941;SDS011;49042;47.318;19.874;2023-02-28T06:43:57;10.95;;;6.45;;
62941;SDS011;49042;47.318;19.874;2023-02-28T06:46:59;9.50;;;5.37;;
62941;SDS011;49042;47.318;19.874;2023-02-28T06:50:01;11.68;;;5.62;;
62941;SDS011;49042;47.318;19.874;2023-02-28T06:53:02;12.63;;;5.00;;
62941;SDS011;49042;47.318;19.874;2023-02-28T06:56:05;8.32;;;5.10;;
62941;SDS011;49042;47.318;19.874;2023-02-28T06:59:08;9.18;;;5.22;;
62941;SDS011;49042;47.318;19.874;2023-02-28T07:02:10;11.55;;;5.30;;
62941;SDS011;49042;47.318;19.874;2023-02-28T07:05:11;10.55;;;4.87;;
62941;SDS011;49042;47.318;19.874;2023-02-28T07:08:13;10.68;;;5.53;;
62941;SDS011;49042;47.318;19.874;2023-02-28T07:11:15;9.65;;;5.20;;
62941;SDS011;49042;47.318;19.874;2023-02-28T07:14:17;10.35;;;5.82;;
62941;SDS011;49042;47.318;19.874;2023-02-28T07:17:18;15.60;;;6.32;;
62941;SDS011;49042;47.318;19.874;2023-02-28T07:20:20;8.82;;;4.35;;
62941;SDS011;49042;47.318;19.874;2023-02-28T07:23:22;11.65;;;5.57;;
62941;SDS011;49042;47.318;19.874;2023-02-28T07:26:23;10.32;;;5.85;;
62941;SDS011;49042;47.318;19.874;2023-02-28T07:29:25;15.70;;;5.65;;
62941;SDS011;49042;47.318;19.874;2023-02-28T07:32:28;11.63;;;5.80;;
62941;SDS011;49042;47.318;19.874;2023-02-28T07:35:30;12.00;;;5.70;;
62941;SDS011;49042;47.318;19.874;2023-02-28T07:38:36;13.85;;;6.30;;
62941;SDS011;49042;47.318;19.874;2023-02-28T07:41:38;11.32;;;5.97;;
62941;SDS011;49042;47.318;19.874;2023-02-28T07:44:44;9.27;;;5.60;;
62941;SDS011;49042;47.318;19.874;2023-02-28T07:47:46;10.50;;;5.87;;
62941;SDS011;49042;47.318;19.874;2023-02-28T07:50:57;17.45;;;6.78;;
62941;SDS011;49042;47.318;19.874;2023-02-28T07:54:00;13.68;;;6.47;;
62941;SDS011;49042;47.318;19.874;2023-02-28T07:57:01;11.60;;;6.25;;
62941;SDS011;49042;47.318;19.874;2023-02-28T08:00:04;10.32;;;5.78;;
62941;SDS011;49042;47.318;19.874;2023-02-28T08:03:09;12.25;;;5.90;;
62941;SDS011;49042;47.318;19.874;2023-02-28T08:06:18;12.13;;;5.65;;
62941;SDS011;49042;47.318;19.874;2023-02-28T08:09:21;9.60;;;5.40;;
62941;SDS011;49042;47.318;19.874;2023-02-28T08:12:23;12.75;;;6.22;;
62941;SDS011;49042;47.318;19.874;2023-02-28T08:15:25;11.73;;;5.50;;
62941;SDS011;49042;47.318;19.874;2023-02-28T08:18:27;10.90;;;5.57;;
62941;SDS011;49042;47.318;19.874;2023-02-28T08:21:29;9.75;;;6.00;;
62941;SDS011;49042;47.318;19.874;2023-02-28T08:24:31;15.25;;;9.13;;
62941;SDS011;49042;47.318;19.874;2023-02-28T08:27:33;22.42;;;11.18;;
62941;SDS011;49042;47.318;19.874;2023-02-28T08:30:34;13.40;;;8.27;;
62941;SDS011;49042;47.318;19.874;2023-02-28T08:33:36;11.52;;;6.12;;
62941;SDS011;49042;47.318;19.874;2023-02-28T08:36:40;8.02;;;5.07;;
62941;SDS011;49042;47.318;19.874;2023-02-28T08:39:43;9.02;;;5.05;;
62941;SDS011;49042;47.318;19.874;2023-02-28T08:42:45;9.27;;;5.00;;
62941;SDS011;49042;47.318;19.874;2023-02-28T08:45:47;9.02;;;5.40;;
62941;SDS011;49042;47.318;19.874;2023-02-28T08:48:51;9.30;;;4.95;;
62941;SDS011;49042;47.318;19.874;2023-02-28T08:51:54;10.00;;;5.05;;
62941;SDS011;49042;47.318;19.874;2023-02-28T08:54:58;14.45;;;8.35;;
62941;SDS011;49042;47.318;19.874;2023-02-28T08:58:00;15.23;;;7.78;;
62941;SDS011;49042;47.318;19.874;2023-02-28T09:04:10;11.88;;;7.40;;
62941;SDS011;49042;47.318;19.874;2023-02-28T09:07:17;16.57;;;5.97;;
62941;SDS011;49042;47.318;19.874;2023-02-28T09:10:19;14.32;;;5.40;;
62941;SDS011;49042;47.318;19.874;2023-02-28T09:13:20;16.02;;;8.60;;
62941;SDS011;49042;47.318;19.874;2023-02-28T09:16:22;8.93;;;5.47;;
62941;SDS011;49042;47.318;19.874;2023-02-28T09:19:24;14.48;;;7.75;;
62941;SDS011;49042;47.318;19.874;2023-02-28T09:22:26;7.72;;;5.28;;
62941;SDS011;49042;47.318;19.874;2023-02-28T09:25:27;16.90;;;8.05;;
62941;SDS011;49042;47.318;19.874;2023-02-28T09:28:29;12.82;;;6.62;;
62941;SDS011;49042;47.318;19.874;2023-02-28T09:31:31;12.43;;;7.10;;
62941;SDS011;49042;47.318;19.874;2023-02-28T09:34:32;9.15;;;5.15;;
62941;SDS011;49042;47.318;19.874;2023-02-28T09:37:34;17.05;;;7.75;;
62941;SDS011;49042;47.318;19.874;2023-02-28T09:40:37;12.73;;;6.65;;
62941;SDS011;49042;47.318;19.874;2023-02-28T09:43:50;11.12;;;5.97;;
62941;SDS011;49042;47.318;19.874;2023-02-28T09:46:57;17.27;;;7.40;;
62941;SDS011;49042;47.318;19.874;2023-02-28T09:50:50;9.00;;;5.50;;
62941;SDS011;49042;47.318;19.874;2023-02-28T09:53:43;7.97;;;5.12;;
62941;SDS011;49042;47.318;19.874;2023-02-28T09:56:51;9.75;;;5.70;;
62941;SDS011;49042;47.318;19.874;2023-02-28T10:06:48;9.05;;;5.18;;
62941;SDS011;49042;47.318;19.874;2023-02-28T10:09:53;17.00;;;4.70;;
62941;SDS011;49042;47.318;19.874;2023-02-28T10:12:58;8.85;;;5.28;;
62941;SDS011;49042;47.318;19.874;2023-02-28T10:16:08;8.63;;;5.28;;
62941;SDS011;49042;47.318;19.874;2023-02-28T10:25:41;9.05;;;4.93;;
62941;SDS011;49042;47.318;19.874;2023-02-28T10:28:49;8.50;;;5.22;;
62941;SDS011;49042;47.318;19.874;2023-02-28T10:31:54;6.53;;;4.70;;
62941;SDS011;49042;47.318;19.874;2023-02-28T10:34:59;12.02;;;5.43;;
62941;SDS011;49042;47.318;19.874;2023-02-28T10:38:23;6.85;;;4.90;;
62941;SDS011;49042;47.318;19.874;2023-02-28T10:44:37;8.77;;;4.93;;
62941;SDS011;49042;47.318;19.874;2023-02-28T10:53:52;11.43;;;6.45;;
62941;SDS011;49042;47.318;19.874;2023-02-28T10:57:06;7.90;;;5.47;;
62941;SDS011;49042;47.318;19.874;2023-02-28T11:00:19;15.80;;;9.05;;
62941;SDS011;49042;47.318;19.874;2023-02-28T11:06:37;14.20;;;5.22;;
62941;SDS011;49042;47.318;19.874;2023-02-28T11:09:39;9.50;;;5.15;;
62941;SDS011;49042;47.318;19.874;2023-02-28T11:12:42;12.40;;;7.62;;
62941;SDS011;49042;47.318;19.874;2023-02-28T11:15:54;13.43;;;5.32;;
62941;SDS011;49042;47.318;19.874;2023-02-28T11:19:02;5.90;;;4.22;;
62941;SDS011;49042;47.318;19.874;2023-02-28T11:22:06;6.50;;;4.37;;
62941;SDS011;49042;47.318;19.874;2023-02-28T11:28:25;8.52;;;5.18;;
62941;SDS011;49042;47.318;19.874;2023-02-28T11:31:29;7.05;;;4.57;;
62941;SDS011;49042;47.318;19.874;2023-02-28T11:34:34;9.40;;;5.10;;
62941;SDS011;49042;47.318;19.874;2023-02-28T11:37:36;51.28;;;6.53;;
62941;SDS011;49042;47.318;19.874;2023-02-28T11:40:43;7.78;;;4.55;;
62941;SDS011;49042;47.318;19.874;2023-02-28T12:04:26;9.52;;;5.72;;
62941;SDS011;49042;47.318;19.874;2023-02-28T12:21:14;8.65;;;5.25;;
62941;SDS011;49042;47.318;19.874;2023-02-28T12:30:35;8.32;;;5.35;;
62941;SDS011;49042;47.318;19.874;2023-02-28T12:33:45;12.93;;;6.05;;
62941;SDS011;49042;47.318;19.874;2023-02-28T12:36:52;10.77;;;6.40;;
62941;SDS011;49042;47.318;19.874;2023-02-28T12:40:04;10.85;;;5.80;;
62941;SDS011;49042;47.318;19.874;2023-02-28T12:43:12;8.77;;;5.70;;
62941;SDS011;49042;47.318;19.874;2023-02-28T12:46:19;34.33;;;6.80;;
62941;SDS011;49042;47.318;19.874;2023-02-28T12:49:27;10.85;;;6.62;;
62941;SDS011;49042;47.318;19.874;2023-02-28T12:56:07;15.43;;;7.65;;
62941;SDS011;49042;47.318;19.874;2023-02-28T13:02:55;9.93;;;5.85;;
62941;SDS011;49042;47.318;19.874;2023-02-28T13:09:51;8.13;;;5.28;;
62941;SDS011;49042;47.318;19.874;2023-02-28T13:12:58;7.97;;;5.65;;
62941;SDS011;49042;47.318;19.874;2023-02-28T13:19:11;10.35;;;6.20;;
62941;SDS011;49042;47.318;19.874;2023-02-28T13:22:16;11.48;;;7.35;;
62941;SDS011;49042;47.318;19.874;2023-02-28T13:35:12;14.38;;;6.55;;
62941;SDS011;49042;47.318;19.874;2023-02-28T13:38:17;9.20;;;6.00;;
62941;SDS011;49042;47.318;19.874;2023-02-28T13:44:33;14.48;;;7.70;;
62941;SDS011;49042;47.318;19.874;2023-02-28T13:48:04;14.27;;;7.45;;
62941;SDS011;49042;47.318;19.874;2023-02-28T13:51:40;12.68;;;7.40;;
62941;SDS011;49042;47.318;19.874;2023-02-28T14:05:12;8.27;;;5.43;;
62941;SDS011;49042;47.318;19.874;2023-02-28T14:08:20;11.20;;;5.85;;
62941;SDS011;49042;47.318;19.874;2023-02-28T14:11:31;10.77;;;6.62;;
62941;SDS011;49042;47.318;19.874;2023-02-28T14:17:40;10.00;;;5.85;;
62941;SDS011;49042;47.318;19.874;2023-02-28T14:20:42;11.82;;;6.55;;
62941;SDS011;49042;47.318;19.874;2023-02-28T14:37:09;8.63;;;5.97;;
62941;SDS011;49042;47.318;19.874;2023-02-28T14:40:37;10.40;;;6.50;;
62941;SDS011;49042;47.318;19.874;2023-02-28T14:43:47;9.15;;;6.03;;
62941;SDS011;49042;47.318;19.874;2023-02-28T14:46:58;11.18;;;7.00;;
62941;SDS011;49042;47.318;19.874;2023-02-28T14:50:20;9.48;;;6.35;;
62941;SDS011;49042;47.318;19.874;2023-02-28T14:53:25;15.30;;;8.48;;
62941;SDS011;49042;47.318;19.874;2023-02-28T14:56:34;10.30;;;6.30;;
62941;SDS011;49042;47.318;19.874;2023-02-28T14:59:38;21.83;;;6.57;;
62941;SDS011;49042;47.318;19.874;2023-02-28T15:02:40;9.07;;;6.12;;
62941;SDS011;49042;47.318;19.874;2023-02-28T15:05:47;7.18;;;4.90;;
62941;SDS011;49042;47.318;19.874;2023-02-28T15:09:17;8.88;;;5.43;;
62941;SDS011;49042;47.318;19.874;2023-02-28T15:12:19;10.30;;;6.30;;
62941;SDS011;49042;47.318;19.874;2023-02-28T15:15:22;13.23;;;7.82;;
62941;SDS011;49042;47.318;19.874;2023-02-28T15:18:54;16.33;;;8.45;;
62941;SDS011;49042;47.318;19.874;2023-02-28T15:22:02;16.25;;;6.50;;
62941;SDS011;49042;47.318;19.874;2023-02-28T15:25:13;8.57;;;5.37;;
62941;SDS011;49042;47.318;19.874;2023-02-28T15:28:20;10.10;;;6.10;;
62941;SDS011;49042;47.318;19.874;2023-02-28T15:31:34;14.63;;;6.90;;
62941;SDS011;49042;47.318;19.874;2023-02-28T15:34:57;10.77;;;6.12;;
62941;SDS011;49042;47.318;19.874;2023-02-28T15:41:22;12.20;;;8.63;;
62941;SDS011;49042;47.318;19.874;2023-02-28T15:44:27;11.52;;;7.03;;
62941;SDS011;49042;47.318;19.874;2023-02-28T15:47:35;25.50;;;11.25;;
62941;SDS011;49042;47.318;19.874;2023-02-28T15:50:37;19.65;;;8.80;;
62941;SDS011;49042;47.318;19.874;2023-02-28T15:57:05;16.33;;;9.05;;
62941;SDS011;49042;47.318;19.874;2023-02-28T16:00:13;14.05;;;7.68;;
62941;SDS011;49042;47.318;19.874;2023-02-28T16:03:24;12.23;;;6.55;;
62941;SDS011;49042;47.318;19.874;2023-02-28T16:06:33;13.43;;;6.80;;
62941;SDS011;49042;47.318;19.874;2023-02-28T16:09:38;19.75;;;9.40;;
62941;SDS011;49042;47.318;19.874;2023-02-28T16:12:40;21.42;;;11.12;;
62941;SDS011;49042;47.318;19.874;2023-02-28T16:15:43;26.67;;;13.88;;
62941;SDS011;49042;47.318;19.874;2023-02-28T16:18:45;20.10;;;10.40;;
62941;SDS011;49042;47.318;19.874;2023-02-28T16:21:47;24.15;;;10.85;;
62941;SDS011;49042;47.318;19.874;2023-02-28T16:24:50;21.60;;;9.82;;
62941;SDS011;49042;47.318;19.874;2023-02-28T16:27:52;18.75;;;9.27;;
62941;SDS011;49042;47.318;19.874;2023-02-28T16:30:55;26.30;;;9.73;;
62941;SDS011;49042;47.318;19.874;2023-02-28T16:33:57;19.37;;;9.95;;
62941;SDS011;49042;47.318;19.874;2023-02-28T16:36:59;15.43;;;9.50;;
62941;SDS011;49042;47.318;19.874;2023-02-28T16:40:01;20.20;;;8.25;;
62941;SDS011;49042;47.318;19.874;2023-02-28T16:43:13;13.07;;;8.57;;
62941;SDS011;49042;47.318;19.874;2023-02-28T16:46:19;15.98;;;8.88;;
62941;SDS011;49042;47.318;19.874;2023-02-28T16:49:22;16.80;;;9.98;;
62941;SDS011;49042;47.318;19.874;2023-02-28T16:52:26;13.00;;;8.95;;
62941;SDS011;49042;47.318;19.874;2023-02-28T16:55:27;16.60;;;9.60;;
62941;SDS011;49042;47.318;19.874;2023-02-28T16:58:29;23.12;;;10.10;;
62941;SDS011;49042;47.318;19.874;2023-02-28T17:01:32;15.85;;;8.88;;
62941;SDS011;49042;47.318;19.874;2023-02-28T17:04:34;19.33;;;10.27;;
62941;SDS011;49042;47.318;19.874;2023-02-28T17:07:36;32.55;;;15.63;;
62941;SDS011;49042;47.318;19.874;2023-02-28T17:10:39;32.75;;;18.08;;
62941;SDS011;49042;47.318;19.874;2023-02-28T17:13:41;20.60;;;13.10;;
62941;SDS011;49042;47.318;19.874;2023-02-28T17:16:43;29.52;;;15.02;;
62941;SDS011;49042;47.318;19.874;2023-02-28T17:19:45;33.13;;;18.35;;
62941;SDS011;49042;47.318;19.874;2023-02-28T17:22:48;22.55;;;12.13;;
62941;SDS011;49042;47.318;19.874;2023-02-28T17:25:51;21.87;;;10.30;;
62941;SDS011;49042;47.318;19.874;2023-02-28T17:28:58;24.73;;;11.40;;
62941;SDS011;49042;47.318;19.874;2023-02-28T17:32:00;54.25;;;22.75;;
62941;SDS011;49042;47.318;19.874;2023-02-28T17:35:17;66.43;;;26.95;;
62941;SDS011;49042;47.318;19.874;2023-02-28T17:38:19;49.78;;;23.95;;
62941;SDS011;49042;47.318;19.874;2023-02-28T17:41:24;35.63;;;18.65;;
62941;SDS011;49042;47.318;19.874;2023-02-28T17:44:27;20.52;;;11.98;;
62941;SDS011;49042;47.318;19.874;2023-02-28T17:47:30;26.05;;;12.10;;
62941;SDS011;49042;47.318;19.874;2023-02-28T17:50:32;33.90;;;13.90;;
62941;SDS011;49042;47.318;19.874;2023-02-28T17:53:35;19.35;;;11.32;;
62941;SDS011;49042;47.318;19.874;2023-02-28T17:56:37;22.50;;;11.30;;
62941;SDS011;49042;47.318;19.874;2023-02-28T17:59:39;33.20;;;16.50;;
62941;SDS011;49042;47.318;19.874;2023-02-28T18:02:42;26.92;;;14.55;;
62941;SDS011;49042;47.318;19.874;2023-02-28T18:05:47;29.08;;;13.30;;
62941;SDS011;49042;47.318;19.874;2023-02-28T18:08:53;20.37;;;11.65;;
62941;SDS011;49042;47.318;19.874;2023-02-28T18:11:56;22.35;;;11.98;;
62941;SDS011;49042;47.318;19.874;2023-02-28T18:15:00;31.10;;;16.83;;
62941;SDS011;49042;47.318;19.874;2023-02-28T18:18:03;25.27;;;13.95;;
62941;SDS011;49042;47.318;19.874;2023-02-28T18:21:06;19.60;;;11.15;;
62941;SDS011;49042;47.318;19.874;2023-02-28T18:24:11;24.17;;;14.45;;
62941;SDS011;49042;47.318;19.874;2023-02-28T18:27:14;22.15;;;12.30;;
62941;SDS011;49042;47.318;19.874;2023-02-28T18:30:16;17.62;;;10.05;;
62941;SDS011;49042;47.318;19.874;2023-02-28T18:33:18;15.02;;;8.50;;
62941;SDS011;49042;47.318;19.874;2023-02-28T18:36:21;28.02;;;15.13;;
62941;SDS011;49042;47.318;19.874;2023-02-28T18:39:24;26.55;;;15.13;;
62941;SDS011;49042;47.318;19.874;2023-02-28T18:42:26;20.75;;;10.88;;
62941;SDS011;49042;47.318;19.874;2023-02-28T18:45:29;22.10;;;13.35;;
62941;SDS011;49042;47.318;19.874;2023-02-28T18:48:34;24.48;;;13.68;;
62941;SDS011;49042;47.318;19.874;2023-02-28T18:51:37;24.10;;;14.20;;
62941;SDS011;49042;47.318;19.874;2023-02-28T18:54:40;33.63;;;13.88;;
62941;SDS011;49042;47.318;19.874;2023-02-28T18:57:44;42.35;;;16.67;;
62941;SDS011;49042;47.318;19.874;2023-02-28T19:00:50;26.37;;;13.00;;
62941;SDS011;49042;47.318;19.874;2023-02-28T19:03:52;28.83;;;13.45;;
62941;SDS011;49042;47.318;19.874;2023-02-28T19:06:55;28.33;;;13.25;;
62941;SDS011;49042;47.318;19.874;2023-02-28T19:09:57;20.48;;;13.13;;
62941;SDS011;49042;47.318;19.874;2023-02-28T19:12:59;21.67;;;12.48;;
62941;SDS011;49042;47.318;19.874;2023-02-28T19:16:03;26.37;;;12.68;;
62941;SDS011;49042;47.318;19.874;2023-02-28T19:19:07;25.62;;;13.10;;
62941;SDS011;49042;47.318;19.874;2023-02-28T19:22:09;26.30;;;13.60;;
62941;SDS011;49042;47.318;19.874;2023-02-28T19:25:11;31.58;;;14.95;;
62941;SDS011;49042;47.318;19.874;2023-02-28T19:28:14;28.50;;;13.85;;
62941;SDS011;49042;47.318;19.874;2023-02-28T19:31:21;35.25;;;14.43;;
62941;SDS011;49042;47.318;19.874;2023-02-28T19:34:25;29.80;;;14.30;;
62941;SDS011;49042;47.318;19.874;2023-02-28T19:37:28;29.92;;;14.40;;
62941;SDS011;49042;47.318;19.874;2023-02-28T19:40:30;30.20;;;14.73;;
62941;SDS011;49042;47.318;19.874;2023-02-28T19:43:32;33.25;;;14.85;;
62941;SDS011;49042;47.318;19.874;2023-02-28T19:46:34;17.55;;;10.93;;
62941;SDS011;49042;47.318;19.874;2023-02-28T19:49:39;22.48;;;11.55;;
62941;SDS011;49042;47.318;19.874;2023-02-28T19:52:41;19.85;;;10.73;;
62941;SDS011;49042;47.318;19.874;2023-02-28T19:55:45;17.30;;;8.43;;
62941;SDS011;49042;47.318;19.874;2023-02-28T19:58:48;14.15;;;9.18;;
62941;SDS011;49042;47.318;19.874;2023-02-28T20:01:51;14.82;;;8.18;;
62941;SDS011;49042;47.318;19.874;2023-02-28T20:04:56;16.40;;;9.43;;
62941;SDS011;49042;47.318;19.874;2023-02-28T20:08:02;21.20;;;10.50;;
62941;SDS011;49042;47.318;19.874;2023-02-28T20:11:05;19.40;;;10.40;;
62941;SDS011;49042;47.318;19.874;2023-02-28T20:14:13;19.00;;;11.27;;
62941;SDS011;49042;47.318;19.874;2023-02-28T20:17:18;18.67;;;10.20;;
62941;SDS011;49042;47.318;19.874;2023-02-28T20:20:20;18.23;;;9.50;;
62941;SDS011;49042;47.318;19.874;2023-02-28T20:23:23;14.95;;;9.20;;
62941;SDS011;49042;47.318;19.874;2023-02-28T20:26:26;16.95;;;9.52;;
62941;SDS011;49042;47.318;19.874;2023-02-28T20:29:31;20.12;;;12.00;;
62941;SDS011;49042;47.318;19.874;2023-02-28T20:32:35;22.67;;;14.15;;
62941;SDS011;49042;47.318;19.874;2023-02-28T20:35:42;33.40;;;17.87;;
62941;SDS011;49042;47.318;19.874;2023-02-28T20:38:45;35.65;;;18.42;;
62941;SDS011;49042;47.318;19.874;2023-02-28T20:41:49;42.35;;;22.33;;
62941;SDS011;49042;47.318;19.874;2023-02-28T20:44:52;45.33;;;23.98;;
62941;SDS011;49042;47.318;19.874;2023-02-28T20:47:54;40.38;;;22.80;;
62941;SDS011;49042;47.318;19.874;2023-02-28T20:50:57;48.45;;;25.80;;
62941;SDS011;49042;47.318;19.874;2023-02-28T20:54:01;49.25;;;25.25;;
62941;SDS011;49042;47.318;19.874;2023-02-28T20:57:06;43.92;;;23.98;;
62941;SDS011;49042;47.318;19.874;2023-02-28T21:00:08;38.42;;;22.35;;
62941;SDS011;49042;47.318;19.874;2023-02-28T21:03:20;42.38;;;22.05;;